Aérodrome :
LOGIN :

S'inscrire | Disclaimer

   EN    FR    IT 

 










Légende :    VFR   VFR Marginal   IFR   IFR Intensif   IFR Très Intensif
Visi : 
Plafond : 
>= 8 km
>= 3000ft
5 à 8 km
1000 à 3000 ft
1500m à 5 km
500 à 1000 ft
800 à 1500m
200 à 500 ft
< 800m
< 200 ft
Symboles :   Orages  Brouillard  Fortes neiges  Fortes précipitations  Vent > 20 kt
SIGMETs :   Divers  Orages  Givrage  Turbulence  Onde Orograph.  Cendres Volcan.







- Altitude de l'aérodrome : 587 ft
- Code IATA : XCR
- Voir les cartes d'approche


LFOK - Chalons Vatry

DERNIER METAR :
  • 162200Z AUTO 17005KT CAVOK 15/12 Q1022 NOSIG

METARs EXPIRÉS :
  • 162130Z AUTO 17005KT CAVOK 15/12 Q1022 NOSIG
  • 162100Z AUTO 19004KT CAVOK 15/12 Q1022 NOSIG
  • 162030Z AUTO 19005KT CAVOK 15/12 Q1022 NOSIG
  • 162000Z AUTO 19005KT CAVOK 15/12 Q1022 NOSIG
  • 161930Z AUTO 20005KT CAVOK 15/12 Q1022 NOSIG

TAF TAF LFOK
Valide du 16 à 18h jusqu'au 17 à 18h UTC


161700Z 1618/1718 17007KT CAVOK
BECMG 1702/1704 1500 BR
TEMPO 1704/1707 0500 FG VV///
BECMG 1707/1709 6000 NSW
Pas de NOTAMs connus pour ce terrain.



MET'MAP, la Météo Aéronautique d'un coup d'oeil ! - Copyright ORBIFLY Décembre 2007 - Disclaimer

ORBIFLY MET'MAP TEAM :

Programmation & Développement : Alexandra Zaïnal
Conception & Développement : Baudouin d'Aumeries
Co-Programmation & Développement : Marc-Olivier Méhu
Soutien technique & logistique : Manuel Goepfert

Contact : metmap@orbifly.com




SOURCES & CREDITS :

   NOAA